Time;durP1;ratioP1;P1;durP2;ratioP2;P2;SDS_P1;SDS_P2;PMS_P1;PMS_P2;Temp;Humidity;BMP_temperature;BMP_pressure;BME280_temperature;BME280_humidity;BME280_pressure;Samples;Min_cycle;Max_cycle;Signal;HPM_P1;HPM_P2
2024/04/12 00:01:10;;;;;;;1.50;1.27;;;9.00;99.90;8.80;102213.00;;;;5304694;26;79603;-66
2024/04/12 00:03:38;;;;;;;1.87;1.17;;;8.90;99.90;8.80;102202.00;;;;5311643;26;79850;-65
2024/04/12 00:06:14;;;;;;;1.87;1.43;;;8.90;99.90;8.70;102191.00;;;;5310921;26;83536;-65
2024/04/12 00:08:47;;;;;;;1.40;1.20;;;8.90;99.90;8.70;102197.00;;;;5284304;26;80341;-65
2024/04/12 00:11:20;;;;;;;1.87;1.27;;;8.80;99.90;8.70;102191.00;;;;5314053;26;79623;-66
2024/04/12 00:13:53;;;;;;;5.47;2.07;;;8.80;99.90;8.60;102207.00;;;;5309569;26;79271;-65
2024/04/12 00:16:25;;;;;;;1.07;0.97;;;8.90;99.90;8.60;102201.00;;;;5312711;26;82711;-66
2024/04/12 00:19:06;;;;;;;2.50;1.47;;;8.80;99.90;8.60;102201.00;;;;5309402;26;81162;-66
2024/04/12 00:21:33;;;;;;;3.07;1.70;;;8.80;99.90;8.60;102196.00;;;;5313855;26;79488;-66
2024/04/12 00:24:06;;;;;;;1.80;1.33;;;8.70;99.90;8.60;102189.00;;;;5308850;26;79323;-66
2024/04/12 00:26:32;;;;;;;1.83;1.37;;;8.70;99.90;8.60;102184.00;;;;5309118;26;81109;-66
2024/04/12 00:28:58;;;;;;;2.30;1.87;;;8.70;99.90;8.50;102181.00;;;;5314638;26;80686;-66
2024/04/12 00:31:26;;;;;;;1.57;1.27;;;8.70;99.90;8.50;102186.00;;;;5307927;26;79436;-66
2024/04/12 00:33:55;;;;;;;2.07;1.87;;;8.60;99.90;8.50;102178.00;;;;5310453;26;79126;-66
2024/04/12 00:36:24;;;;;;;1.33;1.23;;;8.60;99.90;8.50;102177.00;;;;5311167;26;81117;-66
2024/04/12 00:38:55;;;;;;;1.77;1.13;;;8.60;99.90;8.50;102181.00;;;;5309853;26;85316;-65
2024/04/12 00:41:24;;;;;;;2.97;2.20;;;8.60;99.90;8.40;102183.00;;;;5310475;26;80947;-65
2024/04/12 00:43:51;;;;;;;6.47;2.47;;;8.60;99.90;8.40;102181.00;;;;5309011;26;79802;-65
2024/04/12 00:46:23;;;;;;;2.37;1.53;;;8.60;99.90;8.40;102187.00;;;;5304731;26;81096;-65
2024/04/12 00:48:54;;;;;;;2.27;1.43;;;8.70;99.90;8.30;102180.00;;;;5282943;26;80556;-65
2024/04/12 00:51:24;;;;;;;1.80;1.50;;;8.50;99.90;8.30;102180.00;;;;5309386;26;80074;-66
2024/04/12 00:53:57;;;;;;;1.67;1.50;;;8.50;99.90;8.30;102179.00;;;;5314652;26;79612;-65
2024/04/12 00:56:27;;;;;;;3.50;1.67;;;8.40;99.90;8.30;102183.00;;;;5315061;26;79863;-65
2024/04/12 00:58:59;;;;;;;1.83;1.70;;;8.40;99.90;8.20;102178.00;;;;5312961;26;80798;-64
2024/04/12 01:01:26;;;;;;;3.53;2.00;;;8.40;99.90;8.20;102183.00;;;;5307725;26;79926;-65
2024/04/12 01:03:56;;;;;;;3.10;2.23;;;8.40;99.90;8.10;102179.00;;;;5310076;26;79680;-64
2024/04/12 01:06:30;;;;;;;3.53;2.23;;;8.30;99.90;8.10;102180.00;;;;5307922;26;81590;-67
2024/04/12 01:09:10;;;;;;;3.00;2.30;;;8.00;99.90;8.10;102172.00;;;;5314231;26;109493;-65
2024/04/12 01:11:37;;;;;;;2.17;1.80;;;8.30;99.90;8.00;102167.00;;;;5307816;26;79501;-65
2024/04/12 01:14:05;;;;;;;3.43;2.17;;;8.20;99.90;8.00;102170.00;;;;5307931;26;79637;-66
2024/04/12 01:16:31;;;;;;;1.83;1.40;;;8.20;99.90;7.90;102170.00;;;;5309940;26;80125;-66
2024/04/12 01:18:57;;;;;;;2.07;1.63;;;8.10;99.90;7.90;102168.00;;;;5311449;26;100531;-66
2024/04/12 01:21:26;;;;;;;2.00;1.80;;;8.00;99.90;7.80;102149.00;;;;5307805;26;79245;-65
2024/04/12 01:23:55;;;;;;;1.80;1.60;;;8.30;99.90;7.80;102154.00;;;;5315490;26;78940;-66
2024/04/12 01:26:23;;;;;;;2.63;1.33;;;7.90;99.90;7.80;102155.00;;;;5311642;26;80822;-65
2024/04/12 01:28:51;;;;;;;1.67;1.37;;;7.90;99.90;7.80;102152.00;;;;5302399;26;80430;-66
2024/04/12 01:31:17;;;;;;;1.97;1.77;;;7.90;99.90;7.80;102149.00;;;;5309029;26;84209;-66
2024/04/12 01:33:50;;;;;;;3.10;1.80;;;7.90;99.90;7.80;102148.00;;;;5335219;26;79476;-65
2024/04/12 01:36:21;;;;;;;1.20;1.10;;;7.90;99.90;7.80;102158.00;;;;5308323;26;79714;-66
2024/04/12 01:38:57;;;;;;;1.77;1.50;;;7.90;99.90;7.70;102151.00;;;;5305842;26;79868;-65
2024/04/12 01:41:31;;;;;;;1.43;1.20;;;7.80;99.90;7.70;102151.00;;;;5307142;26;79438;-65
2024/04/12 01:44:04;;;;;;;1.97;1.30;;;7.80;99.90;7.60;102153.00;;;;5276761;26;79617;-65
2024/04/12 01:46:34;;;;;;;4.17;1.97;;;7.80;99.90;7.60;102142.00;;;;5302438;26;81640;-66
2024/04/12 01:49:10;;;;;;;5.93;1.57;;;7.70;99.90;7.60;102144.00;;;;5311096;26;80477;-64
2024/04/12 01:51:41;;;;;;;1.23;1.07;;;7.70;99.90;7.60;102140.00;;;;5308831;26;79365;-64
2024/04/12 01:54:13;;;;;;;1.10;1.00;;;7.70;99.90;7.50;102137.00;;;;5277206;26;79875;-65
2024/04/12 01:56:50;;;;;;;2.77;1.57;;;7.70;99.90;7.50;102116.00;;;;5305321;26;81886;-65
2024/04/12 01:59:23;;;;;;;4.20;1.97;;;7.70;99.90;7.50;102133.00;;;;5303766;26;81195;-66
2024/04/12 02:01:53;;;;;;;2.00;1.23;;;7.60;99.90;7.40;102134.00;;;;5308759;26;79656;-65
2024/04/12 02:04:21;;;;;;;2.60;1.53;;;7.60;99.90;7.40;102130.00;;;;5298621;26;79800;-65
2024/04/12 02:06:50;;;;;;;4.03;1.80;;;7.60;99.90;7.40;102137.00;;;;5304350;26;80646;-66
2024/04/12 02:09:17;;;;;;;2.20;1.70;;;7.50;99.90;7.40;102138.00;;;;5304839;26;79938;-65
2024/04/12 02:11:46;;;;;;;2.13;1.30;;;7.50;99.90;7.40;102145.00;;;;5302820;26;79423;-65
2024/04/12 02:14:13;;;;;;;4.27;1.37;;;7.50;99.90;7.40;102144.00;;;;5302486;26;80020;-65
2024/04/12 02:16:41;;;;;;;2.47;1.93;;;7.50;99.90;7.40;102144.00;;;;5304226;26;95396;-64
2024/04/12 02:19:12;;;;;;;2.83;1.87;;;7.50;99.90;7.40;102142.00;;;;5300473;26;109027;-66
2024/04/12 02:21:40;;;;;;;3.57;1.77;;;7.60;99.90;7.40;102125.00;;;;5308854;26;80182;-66
2024/04/12 02:24:08;;;;;;;6.63;1.60;;;7.60;99.90;7.40;102130.00;;;;5302065;26;79630;-66
2024/04/12 02:26:35;;;;;;;3.63;1.77;;;7.50;99.90;7.40;102116.00;;;;5332657;25;86566;-64
2024/04/12 02:29:04;;;;;;;1.80;1.47;;;7.50;99.90;7.30;102122.00;;;;5305167;26;97150;-64
2024/04/12 02:31:35;;;;;;;2.13;1.60;;;7.50;99.90;7.30;102129.00;;;;5304514;26;79450;-65
2024/04/12 02:34:02;;;;;;;2.83;1.90;;;7.40;99.90;7.20;102133.00;;;;5303634;26;79641;-64
2024/04/12 02:36:30;;;;;;;1.70;1.03;;;7.40;99.90;7.20;102130.00;;;;5304095;26;80169;-64
2024/04/12 02:38:57;;;;;;;1.37;1.20;;;7.40;99.90;7.20;102131.00;;;;5303888;26;79720;-66
2024/04/12 02:41:23;;;;;;;1.40;1.30;;;7.40;99.90;7.20;102131.00;;;;5307399;26;83481;-66
2024/04/12 02:43:51;;;;;;;2.93;1.40;;;7.40;99.90;7.20;102129.00;;;;5310060;26;106017;-65
2024/04/12 02:46:22;;;;;;;1.40;1.30;;;7.60;99.90;7.20;102131.00;;;;5314329;26;80580;-65
2024/04/12 02:48:48;;;;;;;2.33;1.23;;;7.30;99.90;7.20;102117.00;;;;5312927;26;81078;-65
2024/04/12 02:51:18;;;;;;;3.00;1.70;;;7.30;99.90;7.20;102122.00;;;;5313971;26;108653;-65
2024/04/12 02:53:45;;;;;;;1.93;1.83;;;7.70;99.90;7.10;102121.00;;;;5307282;26;79556;-65
2024/04/12 02:56:15;;;;;;;3.20;1.47;;;7.30;99.90;7.10;102130.00;;;;5310760;26;79735;-65
2024/04/12 02:58:44;;;;;;;2.70;1.97;;;7.40;99.90;7.10;102120.00;;;;5316347;26;79428;-65
2024/04/12 03:01:15;;;;;;;2.17;1.87;;;7.90;99.90;7.10;102129.00;;;;5310765;26;79256;-65
2024/04/12 03:03:45;;;;;;;1.40;1.10;;;7.30;99.90;7.10;102110.00;;;;5309897;26;78988;-65
2024/04/12 03:06:22;;;;;;;2.70;1.50;;;7.30;99.90;7.00;102119.00;;;;5310947;26;83732;-65
2024/04/12 03:08:49;;;;;;;3.23;1.77;;;7.20;99.90;7.00;102119.00;;;;5312785;26;80085;-67
2024/04/12 03:11:21;;;;;;;1.40;1.30;;;7.20;99.90;7.00;102116.00;;;;5312526;26;80436;-66
2024/04/12 03:14:03;;;;;;;1.60;1.47;;;7.20;99.90;7.00;102120.00;;;;5312166;26;79534;-64
2024/04/12 03:16:30;;;;;;;2.70;1.60;;;7.10;99.90;6.90;102117.00;;;;5306638;26;79267;-65
2024/04/12 03:18:57;;;;;;;1.43;1.33;;;7.40;99.90;6.90;102115.00;;;;5308762;26;81110;-65
2024/04/12 03:21:30;;;;;;;1.30;0.90;;;7.10;99.90;6.90;102126.00;;;;5312324;26;92126;-65
2024/04/12 03:23:57;;;;;;;1.77;1.33;;;7.10;99.90;6.90;102125.00;;;;5312142;26;80376;-66
2024/04/12 03:26:24;;;;;;;2.43;1.63;;;7.30;99.90;6.80;102127.00;;;;5313385;26;80318;-65
2024/04/12 03:28:58;;;;;;;1.67;1.57;;;7.00;99.90;6.80;102119.00;;;;5309163;26;93288;-65
2024/04/12 03:31:27;;;;;;;1.20;0.97;;;7.00;99.90;6.80;102125.00;;;;5308645;26;79411;-65
2024/04/12 03:33:55;;;;;;;1.20;1.10;;;7.00;99.90;6.80;102125.00;;;;5298600;26;79693;-65
2024/04/12 03:36:53;;;;;;;2.63;1.40;;;7.50;99.90;6.80;102131.00;;;;5311960;26;103140;-65
2024/04/12 03:44:31;;;;;;;1.87;1.50;;;6.90;99.90;6.70;102126.00;;;;5310452;26;80055;-65
2024/04/12 03:47:00;;;;;;;3.60;1.57;;;6.90;99.90;6.70;102139.00;;;;5314711;26;80623;-65
2024/04/12 03:49:28;;;;;;;1.57;1.23;;;6.90;99.90;6.70;102145.00;;;;5314091;26;80597;-64
2024/04/12 03:51:56;;;;;;;4.07;1.83;;;6.90;99.90;6.60;102138.00;;;;5310842;26;79570;-65
2024/04/12 03:54:24;;;;;;;1.83;1.37;;;7.00;99.90;6.60;102135.00;;;;5309604;26;80901;-65
2024/04/12 03:56:53;;;;;;;1.53;1.40;;;7.10;99.90;6.60;102130.00;;;;5312652;26;80795;-65
2024/04/12 03:59:21;;;;;;;1.47;1.10;;;7.20;99.90;6.60;102132.00;;;;5313660;26;79969;-65
2024/04/12 04:01:48;;;;;;;0.93;0.93;;;6.90;99.90;6.60;102126.00;;;;5310649;26;80371;-65
2024/04/12 04:04:17;;;;;;;3.87;1.60;;;6.70;99.90;6.50;102121.00;;;;5309559;26;107838;-65
2024/04/12 04:06:50;;;;;;;2.50;1.50;;;6.70;99.90;6.50;102132.00;;;;5305337;26;83288;-65
2024/04/12 04:09:19;;;;;;;1.20;1.10;;;6.70;99.90;6.50;102117.00;;;;5306017;26;80891;-65
2024/04/12 04:11:49;;;;;;;1.40;1.30;;;7.00;99.90;6.50;102141.00;;;;5311481;26;79482;-65
2024/04/12 04:14:19;;;;;;;1.37;1.27;;;6.70;99.90;6.60;102133.00;;;;5309483;26;79566;-65
2024/04/12 04:16:55;;;;;;;2.77;1.70;;;6.70;99.90;6.60;102119.00;;;;5310751;26;80952;-65
2024/04/12 04:19:39;;;;;;;1.77;1.67;;;6.70;99.90;6.60;102131.00;;;;5312732;26;81654;-65
2024/04/12 04:24:56;;;;;;;3.87;1.90;;;6.80;99.90;6.60;102126.00;;;;5306028;26;79360;-65
2024/04/12 04:27:23;;;;;;;1.93;1.30;;;6.70;99.90;6.60;102122.00;;;;5308328;26;105400;-66
2024/04/12 04:29:51;;;;;;;2.63;1.43;;;7.00;99.90;6.60;102127.00;;;;5304505;26;82699;-65
2024/04/12 04:32:20;;;;;;;3.30;1.43;;;6.80;99.90;6.70;102121.00;;;;5327409;26;86168;-66
2024/04/12 04:34:49;;;;;;;2.33;1.87;;;6.80;99.90;6.70;102128.00;;;;5346223;25;79585;-65
2024/04/12 04:37:15;;;;;;;2.13;1.87;;;6.90;99.90;6.70;102134.00;;;;5341742;26;81229;-65
2024/04/12 04:39:40;;;;;;;1.93;1.83;;;7.20;99.90;6.80;102146.00;;;;5334062;25;80975;-65
2024/04/12 04:42:06;;;;;;;1.60;1.43;;;7.00;99.90;6.80;102142.00;;;;5342669;25;107186;-66
2024/04/12 04:44:32;;;;;;;2.73;1.80;;;6.90;99.90;6.80;102159.00;;;;5347158;26;106766;-66
2024/04/12 04:46:57;;;;;;;2.03;1.80;;;7.30;99.90;6.90;102140.00;;;;5342618;26;79878;-66
2024/04/12 04:49:23;;;;;;;2.10;1.30;;;7.10;99.90;6.80;102147.00;;;;5347005;26;108357;-65
2024/04/12 04:51:50;;;;;;;2.93;1.63;;;7.00;99.90;6.80;102144.00;;;;5349241;26;80717;-65
2024/04/12 04:54:21;;;;;;;2.23;1.67;;;7.00;99.90;6.90;102149.00;;;;5348534;25;81144;-65
2024/04/12 04:56:48;;;;;;;1.67;1.47;;;7.00;99.90;6.90;102155.00;;;;5349844;25;80232;-65
2024/04/12 04:59:17;;;;;;;4.07;2.13;;;7.00;99.90;7.00;102147.00;;;;5346361;25;80729;-65
2024/04/12 05:01:48;;;;;;;5.77;1.93;;;7.10;99.90;7.20;102147.00;;;;5345096;25;79544;-65
2024/04/12 05:04:20;;;;;;;2.77;1.93;;;7.20;99.90;7.30;102144.00;;;;5338400;26;79331;-65
2024/04/12 05:06:50;;;;;;;3.00;1.77;;;7.30;99.90;7.40;102150.00;;;;5345439;25;80494;-65
2024/04/12 05:09:18;;;;;;;1.63;1.53;;;7.50;99.90;7.60;102159.00;;;;5345870;25;79225;-65
2024/04/12 05:11:52;;;;;;;3.40;1.93;;;7.70;99.90;7.80;102148.00;;;;5350397;25;79595;-65
2024/04/12 05:17:04;;;;;;;4.03;1.83;;;8.00;99.90;8.20;102150.00;;;;5341211;25;81060;-65
2024/04/12 05:19:40;;;;;;;1.63;1.43;;;8.20;99.90;8.30;102154.00;;;;5350539;25;80983;-65
2024/04/12 05:22:13;;;;;;;2.50;1.80;;;8.40;99.90;8.50;102154.00;;;;5349398;25;79487;-65
2024/04/12 05:24:41;;;;;;;2.77;1.87;;;8.50;99.90;8.60;102156.00;;;;5344571;25;79814;-65
2024/04/12 05:27:10;;;;;;;2.27;1.83;;;8.60;99.90;8.80;102150.00;;;;5348794;25;80287;-65
2024/04/12 05:29:36;;;;;;;7.47;3.47;;;8.80;99.90;8.90;102147.00;;;;5348078;25;80790;-66
2024/04/12 05:32:03;;;;;;;5.77;2.43;;;8.90;99.90;9.00;102147.00;;;;5344363;25;106876;-65
2024/04/12 05:34:29;;;;;;;2.20;2.07;;;9.00;99.90;9.10;102143.00;;;;5316589;25;79013;-65
2024/04/12 05:37:00;;;;;;;4.10;2.00;;;9.10;99.90;9.20;102148.00;;;;5348106;25;85012;-65
2024/04/12 05:39:26;;;;;;;2.83;2.20;;;9.20;99.90;9.30;102145.00;;;;5352454;25;80492;-66
2024/04/12 05:41:53;;;;;;;2.60;1.80;;;9.30;99.90;9.40;102149.00;;;;5349017;25;95144;-65
2024/04/12 05:44:22;;;;;;;1.83;1.50;;;9.40;99.90;9.50;102153.00;;;;5347561;25;79550;-66
2024/04/12 05:46:48;;;;;;;1.53;1.37;;;9.50;99.90;9.60;102151.00;;;;5350596;25;93868;-66
2024/04/12 05:49:14;;;;;;;1.67;1.57;;;9.60;99.90;9.70;102154.00;;;;5332977;25;108955;-65
2024/04/12 05:51:41;;;;;;;2.30;2.10;;;9.70;99.90;9.80;102152.00;;;;5347600;26;79744;-65
2024/04/12 05:54:10;;;;;;;14.60;2.23;;;9.80;99.90;9.90;102149.00;;;;5344583;25;96473;-66
2024/04/12 05:56:40;;;;;;;2.57;1.60;;;9.90;99.90;10.00;102151.00;;;;5351058;25;79582;-65
2024/04/12 05:59:13;;;;;;;1.73;1.53;;;10.00;99.90;10.20;102146.00;;;;5343987;25;80657;-65
2024/04/12 06:01:46;;;;;;;5.43;1.80;;;10.20;99.90;10.30;102149.00;;;;5342057;25;79586;-65
2024/04/12 06:04:18;;;;;;;1.63;1.53;;;10.30;99.90;10.40;102147.00;;;;5341404;25;79429;-66
2024/04/12 06:06:49;;;;;;;2.20;2.00;;;10.40;99.90;10.50;102153.00;;;;5347683;25;80401;-65
2024/04/12 06:09:21;;;;;;;1.53;1.43;;;10.40;99.90;10.60;102150.00;;;;5343247;25;80840;-66
2024/04/12 06:11:52;;;;;;;2.30;1.90;;;10.60;99.90;10.80;102152.00;;;;5350512;25;79870;-65
2024/04/12 06:14:21;;;;;;;3.07;2.17;;;10.80;99.90;10.90;102150.00;;;;5345938;25;79521;-64
2024/04/12 06:16:51;;;;;;;2.73;1.50;;;10.90;99.90;11.10;102154.00;;;;5345801;25;80679;-64
2024/04/12 06:19:20;;;;;;;2.70;1.73;;;11.00;99.90;11.30;102154.00;;;;5346903;25;80356;-65
2024/04/12 06:21:46;;;;;;;2.23;1.67;;;11.20;99.90;11.40;102142.00;;;;5348153;25;79819;-65
2024/04/12 06:24:17;;;;;;;1.80;1.40;;;11.40;99.90;11.60;102144.00;;;;5352554;25;78870;-65
2024/04/12 06:26:47;;;;;;;3.50;1.53;;;11.50;99.90;11.70;102149.00;;;;5347505;25;79622;-65
2024/04/12 06:29:16;;;;;;;7.30;2.27;;;11.70;99.90;11.90;102145.00;;;;5348320;25;79913;-66
2024/04/12 06:31:46;;;;;;;3.20;1.80;;;11.80;99.90;12.10;102147.00;;;;5348204;25;80433;-65
2024/04/12 06:34:17;;;;;;;4.27;1.80;;;12.00;99.90;12.30;102134.00;;;;5351091;25;83901;-65
2024/04/12 06:36:46;;;;;;;1.53;1.43;;;12.20;99.90;12.50;102130.00;;;;5349708;25;81733;-65
2024/04/12 06:39:14;;;;;;;1.57;1.37;;;12.40;99.90;12.70;102127.00;;;;5348855;25;79995;-66
2024/04/12 06:41:41;;;;;;;3.23;1.67;;;12.60;99.90;13.00;102132.00;;;;5345117;25;82911;-65
2024/04/12 06:44:15;;;;;;;2.13;1.40;;;12.80;99.90;13.10;102130.00;;;;5316833;25;79471;-65
2024/04/12 06:46:44;;;;;;;2.40;1.80;;;13.00;99.90;13.30;102135.00;;;;5351241;25;79664;-65
2024/04/12 06:49:14;;;;;;;2.13;1.53;;;13.20;99.90;13.50;102130.00;;;;5349694;25;80554;-65
2024/04/12 06:54:25;;;;;;;4.80;1.33;;;13.50;99.90;13.80;102129.00;;;;5341523;26;80877;-65
2024/04/12 06:56:50;;;;;;;1.85;1.13;;;13.70;99.90;14.10;102122.00;;;;5349669;25;86529;-66
2024/04/12 06:59:18;;;;;;;1.90;1.33;;;14.00;99.90;14.40;102136.00;;;;5346333;26;108404;-66
2024/04/12 07:01:47;;;;;;;2.60;1.47;;;14.20;99.90;14.70;102136.00;;;;5346716;26;79548;-65
2024/04/12 07:04:14;;;;;;;9.63;1.43;;;14.50;99.90;14.90;102138.00;;;;5347058;26;79879;-65
2024/04/12 07:06:39;;;;;;;4.60;1.02;;;14.70;99.90;15.00;102134.00;;;;5352017;25;81061;-65
2024/04/12 07:09:08;;;;;;;1.88;1.10;;;14.90;99.90;15.10;102144.00;;;;5347137;25;109868;-66
2024/04/12 07:11:39;;;;;;;1.23;1.10;;;15.00;99.90;15.10;102146.00;;;;5349473;25;79480;-65
2024/04/12 07:14:06;;;;;;;3.22;1.40;;;15.00;99.90;15.20;102153.00;;;;5348188;25;79274;-65
2024/04/12 07:16:35;;;;;;;3.90;1.27;;;15.10;99.90;15.40;102152.00;;;;5350485;25;100684;-65
2024/04/12 07:19:08;;;;;;;1.77;0.95;;;15.30;99.90;15.40;102158.00;;;;5344779;25;80447;-65
2024/04/12 07:21:35;;;;;;;1.38;1.27;;;15.30;99.90;15.40;102163.00;;;;5345790;25;80699;-65
2024/04/12 07:24:02;;;;;;;1.73;1.35;;;15.40;99.60;15.60;102163.00;;;;5347891;25;80967;-65
2024/04/12 07:26:29;;;;;;;1.58;1.42;;;15.50;99.30;15.80;102159.00;;;;5348431;25;79870;-65
2024/04/12 07:28:59;;;;;;;4.00;1.10;;;15.60;99.10;16.00;102160.00;;;;5316641;25;79637;-64
2024/04/12 07:31:26;;;;;;;8.32;1.75;;;15.90;98.90;16.30;102160.00;;;;5323120;26;79514;-65
2024/04/12 07:33:54;;;;;;;2.80;1.30;;;16.10;98.60;16.60;102168.00;;;;5346764;25;79746;-65
2024/04/12 07:36:20;;;;;;;2.95;1.38;;;16.40;98.40;16.90;102163.00;;;;5349424;25;84144;-65
2024/04/12 07:38:49;;;;;;;1.58;1.13;;;16.70;97.80;17.10;102159.00;;;;5346217;25;100124;-65
2024/04/12 07:41:15;;;;;;;2.50;1.17;;;16.90;97.20;17.30;102160.00;;;;5344909;25;84243;-65
2024/04/12 07:43:43;;;;;;;1.00;0.90;;;17.10;96.80;17.40;102161.00;;;;5349528;25;84569;-65
2024/04/12 07:46:14;;;;;;;2.33;1.20;;;17.20;96.30;17.40;102173.00;;;;5340809;25;86129;-65
2024/04/12 07:48:41;;;;;;;5.63;0.98;;;17.30;95.70;17.30;102172.00;;;;5347275;25;85400;-65
2024/04/12 07:51:08;;;;;;;2.38;1.05;;;17.30;94.90;17.20;102174.00;;;;5343544;25;84702;-65
2024/04/12 07:53:35;;;;;;;1.17;1.08;;;17.20;94.60;17.20;102177.00;;;;5342744;25;84938;-65
2024/04/12 07:56:07;;;;;;;2.58;1.02;;;17.20;94.60;17.20;102175.00;;;;5347428;25;84998;-65
2024/04/12 07:58:35;;;;;;;2.15;1.33;;;17.20;94.50;17.20;102187.00;;;;5340573;25;84434;-66
2024/04/12 08:01:09;;;;;;;1.83;1.00;;;17.20;94.10;17.30;102186.00;;;;5345181;25;97896;-66
2024/04/12 08:04:22;;;;;;;1.42;1.33;;;17.20;94.00;17.40;102183.00;;;;5345958;25;86230;-65
2024/04/12 08:06:57;;;;;;;3.08;1.60;;;17.30;94.00;17.60;102186.00;;;;5344683;26;84290;-64
2024/04/12 08:09:44;;;;;;;3.53;1.20;;;17.50;93.40;17.70;102179.00;;;;5346659;25;84495;-64
2024/04/12 08:12:23;;;;;;;3.20;1.40;;;17.60;92.30;17.80;102186.00;;;;5343759;26;85404;-65
2024/04/12 08:14:54;;;;;;;1.08;0.90;;;17.70;91.50;17.90;102180.00;;;;5343547;26;84513;-65
2024/04/12 08:17:25;;;;;;;1.65;1.08;;;17.80;91.30;18.20;102168.00;;;;5343717;26;84467;-64
2024/04/12 08:19:55;;;;;;;3.95;1.23;;;18.00;91.30;18.50;102156.00;;;;5345270;26;85924;-65
2024/04/12 08:22:25;;;;;;;1.60;1.50;;;18.30;91.20;18.80;102159.00;;;;5346377;26;84341;-65
2024/04/12 08:24:53;;;;;;;1.40;0.93;;;18.60;89.10;19.00;102147.00;;;;5320824;25;84575;-65
2024/04/12 08:27:24;;;;;;;1.08;1.05;;;18.80;86.50;19.10;102147.00;;;;5343051;25;84940;-65
2024/04/12 08:29:51;;;;;;;1.52;0.90;;;19.00;83.90;19.20;102150.00;;;;5343087;25;84431;-65
2024/04/12 08:32:27;;;;;;;1.40;1.30;;;19.10;81.40;19.40;102151.00;;;;5344576;25;84181;-65
2024/04/12 08:34:55;;;;;;;1.15;0.77;;;19.20;81.30;19.50;102143.00;;;;5344275;25;89261;-65
2024/04/12 08:37:30;;;;;;;2.97;1.10;;;19.40;79.30;19.60;102155.00;;;;5341104;26;85776;-64
2024/04/12 08:39:57;;;;;;;2.25;0.82;;;19.50;79.90;19.90;102143.00;;;;5340936;25;86443;-65
2024/04/12 08:42:29;;;;;;;3.75;1.00;;;19.70;79.10;20.10;102155.00;;;;5337790;26;84746;-65
2024/04/12 08:45:12;;;;;;;2.28;0.85;;;20.00;78.60;20.50;102156.00;;;;5343251;25;84605;-65
2024/04/12 08:47:51;;;;;;;11.48;1.77;;;20.20;78.30;20.80;102158.00;;;;5340247;25;85694;-65
2024/04/12 08:50:24;;;;;;;2.90;1.25;;;20.50;76.30;20.90;102151.00;;;;5287991;26;85902;-65
2024/04/12 08:52:53;;;;;;;0.77;0.77;;;20.70;74.90;21.00;102144.00;;;;5339967;25;84663;-65
2024/04/12 08:55:23;;;;;;;1.02;0.70;;;20.90;72.70;21.10;102156.00;;;;5322962;26;83738;-65
2024/04/12 08:58:00;;;;;;;2.22;1.17;;;21.00;72.20;21.20;102155.00;;;;5345620;25;85414;-65
2024/04/12 09:00:33;;;;;;;1.50;1.00;;;21.00;69.80;21.30;102147.00;;;;5344573;25;84802;-65
2024/04/12 09:03:03;;;;;;;1.88;1.50;;;21.10;69.00;21.40;102144.00;;;;5344290;25;86109;-65
2024/04/12 09:05:35;;;;;;;3.13;1.27;;;21.30;67.80;21.60;102137.00;;;;5344246;26;84202;-65
2024/04/12 09:08:03;;;;;;;0.95;0.70;;;21.40;67.80;21.80;102139.00;;;;5343715;25;86039;-65
2024/04/12 09:10:36;;;;;;;1.52;0.60;;;21.50;66.60;22.10;102145.00;;;;5346051;25;85268;-65
2024/04/12 09:13:08;;;;;;;2.30;1.15;;;21.70;66.10;22.20;102138.00;;;;5334899;25;84254;-65
2024/04/12 09:15:35;;;;;;;1.58;0.93;;;22.00;64.10;22.40;102141.00;;;;5330201;25;84718;-65
2024/04/12 09:18:04;;;;;;;2.03;0.98;;;22.10;63.20;22.50;102138.00;;;;5342990;25;85660;-65
2024/04/12 09:20:34;;;;;;;0.50;0.40;;;22.20;60.40;22.60;102134.00;;;;5344236;25;84129;-65
2024/04/12 09:23:14;;;;;;;1.40;0.77;;;22.40;57.90;22.50;102135.00;;;;5335027;25;84764;-66
2024/04/12 09:25:54;;;;;;;1.50;0.75;;;22.40;58.00;22.50;102136.00;;;;5335612;25;84456;-65
2024/04/12 09:28:22;;;;;;;1.25;0.82;;;22.40;57.50;22.40;102133.00;;;;5344439;25;85585;-65
2024/04/12 09:33:38;;;;;;;0.55;0.55;;;22.20;56.80;22.40;102116.00;;;;5347637;25;84206;-65
2024/04/12 09:36:06;;;;;;;2.58;1.00;;;22.20;57.00;22.50;102120.00;;;;5341715;25;95690;-65
2024/04/12 09:38:39;;;;;;;2.25;1.08;;;22.20;57.20;22.60;102109.00;;;;5347958;25;85587;-65
2024/04/12 09:41:28;;;;;;;2.08;1.25;;;22.40;57.20;22.70;102112.00;;;;5344274;25;85313;-65
2024/04/12 09:43:59;;;;;;;3.60;0.90;;;22.50;56.30;22.70;102107.00;;;;5340362;25;84304;-65
2024/04/12 10:37:22;;;;;;;0.88;0.60;;;22.50;55.60;22.80;102107.00;;;;5343780;25;83803;-65
2024/04/12 10:39:49;;;;;;;3.00;0.90;;;24.50;49.60;24.90;102040.00;;;;5339924;25;84308;-66
2024/04/12 10:42:30;;;;;;;2.45;1.08;;;24.50;48.20;24.60;102047.00;;;;5337924;25;83565;-66
2024/04/12 10:44:59;;;;;;;1.85;0.68;;;24.40;48.30;24.60;102037.00;;;;5337777;25;84746;-66
2024/04/12 10:47:25;;;;;;;1.70;0.40;;;24.30;48.20;24.60;102040.00;;;;5342027;25;84534;-66
2024/04/12 10:49:52;;;;;;;1.70;0.65;;;24.30;48.30;24.70;102030.00;;;;5343042;25;86078;-67
2024/04/12 10:52:28;;;;;;;1.25;0.60;;;24.30;47.50;24.70;102021.00;;;;5345214;25;84310;-65
2024/04/12 10:54:58;;;;;;;1.27;0.82;;;24.40;48.00;24.50;102022.00;;;;5344449;25;84456;-65
2024/04/12 10:57:24;;;;;;;4.28;0.45;;;24.30;47.50;24.30;102020.00;;;;5344676;25;85356;-66
2024/04/12 10:59:51;;;;;;;0.50;0.50;;;24.10;48.10;24.30;102016.00;;;;5338770;26;84383;-65
2024/04/12 11:02:18;;;;;;;3.92;0.63;;;24.00;48.60;24.40;102018.00;;;;5343438;25;84411;-67
2024/04/12 11:07:27;;;;;;;1.27;1.17;;;24.10;48.60;24.50;102022.00;;;;5347318;25;84259;-66
2024/04/12 11:10:03;;;;;;;1.05;0.60;;;24.10;48.70;24.50;102024.00;;;;5315205;25;101320;-67
2024/04/12 11:12:30;;;;;;;1.17;0.77;;;24.20;48.50;24.50;102016.00;;;;5347780;25;84638;-68
2024/04/12 11:31:57;;;;;;;2.00;0.30;;;24.60;48.20;25.40;101991.00;;;;5343558;25;84142;-68
2024/04/12 11:34:29;;;;;;;2.95;0.95;;;25.00;48.40;25.70;101978.00;;;;5313051;26;85383;-68
2024/04/12 11:36:55;;;;;;;6.00;1.30;;;25.20;46.60;25.80;101971.00;;;;5338340;26;85573;-68
2024/04/12 11:39:26;;;;;;;1.85;0.90;;;25.40;46.30;25.90;101973.00;;;;5344905;25;86015;-68
2024/04/12 11:41:55;;;;;;;1.45;0.73;;;25.60;46.30;25.80;101977.00;;;;5343529;25;85635;-68
2024/04/12 11:44:22;;;;;;;3.05;0.82;;;25.50;45.00;25.80;101984.00;;;;5344375;25;84576;-64
2024/04/12 11:46:49;;;;;;;1.02;0.50;;;25.50;45.70;25.70;101970.00;;;;5348464;25;85665;-67
2024/04/12 11:49:25;;;;;;;0.52;0.52;;;25.40;45.20;25.60;101962.00;;;;5315217;25;84563;-67
2024/04/12 11:51:57;;;;;;;2.20;0.45;;;25.30;45.50;25.70;101966.00;;;;5345750;25;84220;-67
2024/04/12 11:54:29;;;;;;;0.55;0.55;;;25.40;46.80;25.60;101972.00;;;;5343328;25;84226;-67
2024/04/12 11:57:02;;;;;;;1.45;0.52;;;25.30;45.90;25.40;101956.00;;;;5340956;25;85490;-67
2024/04/12 11:59:29;;;;;;;0.93;0.52;;;25.20;45.60;25.20;101960.00;;;;5312277;26;84848;-67
2024/04/12 12:02:05;;;;;;;2.78;0.57;;;25.00;46.00;25.20;101960.00;;;;5340200;25;84308;-68
2024/04/12 12:04:32;;;;;;;8.70;1.23;;;24.90;46.60;25.10;101946.00;;;;5345217;26;84316;-67
2024/04/12 12:07:02;;;;;;;3.03;0.60;;;24.90;46.50;25.00;101948.00;;;;5345283;25;86630;-67
2024/04/12 12:09:31;;;;;;;0.77;0.70;;;24.80;46.70;24.80;101942.00;;;;5346169;25;86401;-68
2024/04/12 12:12:00;;;;;;;1.60;0.73;;;24.60;47.30;24.80;101946.00;;;;5344082;25;86564;-68
2024/04/12 12:14:26;;;;;;;1.13;0.98;;;24.50;47.90;24.90;101949.00;;;;5344384;25;84541;-68
2024/04/12 12:16:53;;;;;;;0.70;0.70;;;24.60;48.40;24.90;101934.00;;;;5341923;25;104591;-68
2024/04/12 12:19:19;;;;;;;1.80;0.82;;;24.60;48.20;24.90;101938.00;;;;5341082;25;85526;-68
2024/04/12 12:21:49;;;;;;;1.13;0.57;;;24.60;48.30;24.80;101939.00;;;;5345331;25;107314;-70
2024/04/12 12:24:15;;;;;;;0.90;0.73;;;24.60;48.30;24.80;101938.00;;;;5345733;25;85788;-66
2024/04/12 12:26:41;;;;;;;1.00;0.70;;;24.50;48.80;24.80;101936.00;;;;5342674;25;101998;-70
2024/04/12 12:29:07;;;;;;;0.95;0.68;;;24.50;48.90;24.60;101933.00;;;;5342232;25;104300;-68
2024/04/12 12:31:33;;;;;;;1.10;0.90;;;24.40;48.80;24.50;101936.00;;;;5342534;25;106233;-67
2024/04/12 12:33:59;;;;;;;0.65;0.55;;;24.30;49.30;24.30;101929.00;;;;5337864;25;84400;-67